Flight Track Log - Related Links

Times and Time Zones

All times are in EDT time to prevent confusion due to time zone crossing. See the N888FM flight status page for this flight to view local times or setup timezone preferences in your user account.

Time Position Orientation Groundspeed Altitude Reporting Facility
EDT Latitude Longitude Course Direction KTS MPH feet Rate Location/Type
Mon 02:34:03 PM 42.2531 -71.8511 236° Southwest 170 196 2,400  Level Boston Center
Mon 02:35:40 PM 42.2139 -71.9300 236° Southwest 203 234 6,000 2,036 Climbing Boston Center
Mon 02:36:51 PM 42.2203 -72.0111 276° West 220 253 8,100 1,878 Climbing Boston Center
Mon 02:37:51 PM 42.2269 -72.1036 276° West 220 253 10,100 1,800 Climbing Boston Center
Mon 02:38:51 PM 42.2333 -72.1764 277° West 220 253 11,700 1,800 Climbing Boston Center
Mon 02:39:51 PM 42.2397 -72.2633 276° West 220 253 13,700 1,682 Climbing Boston Center
Mon 02:41:03 PM 42.2461 -72.3308 277° West 215 247 15,400 1,727 Climbing Boston Center
Mon 02:42:03 PM 42.2525 -72.4178 276° West 210 242 17,500 1,300 Climbing Boston Center
Mon 02:43:03 PM 42.2586 -72.5017 276° West 201 231 18,000 250 Climbing Boston Center
Mon 02:44:03 PM 42.2647 -72.5831 276° West 227 261 18,000  Level Boston Center
Mon 02:45:03 PM 42.2708 -72.6703 275° West 254 292 18,000  Level Boston Center
Mon 02:46:03 PM 42.2811 -72.7908 277° West 266 306 18,000  Level Boston Center
Mon 02:47:03 PM 42.2869 -72.8836 275° West 276 318 18,000  Level Boston Center
Mon 02:48:03 PM 42.2906 -72.9958 273° West 276 318 18,000  Level Boston Center
Mon 02:49:03 PM 42.2839 -73.0883 264° West 271 312 18,000  Level Boston Center
Mon 02:50:03 PM 42.2811 -73.2006 268° West 271 312 18,000  Level Boston Center
Mon 02:51:03 PM 42.2764 -73.2958 266° West 276 318 18,000  Level Boston Center
Mon 02:52:03 PM 42.2692 -73.4108 265° West 276 318 18,000  Level Boston Center
Mon 02:53:03 PM 42.2642 -73.5117 266° West 276 318 18,000  Level Boston Center
Mon 02:54:03 PM 42.2589 -73.6156 266° West 276 318 18,000  Level Boston Center
Mon 02:55:03 PM 42.2539 -73.6994 265° West 276 318 18,000  Level Boston Center
Mon 02:56:03 PM 42.2483 -73.8172 266° West 269 310 18,000  Level Boston Center
Mon 02:57:03 PM 42.2428 -73.9125 266° West 274 315 18,000  Level Boston Center
Mon 02:58:03 PM 42.2350 -74.0272 265° West 274 315 18,000  Level Boston Center
Mon 02:59:03 PM 42.2294 -74.1308 266° West 274 315 18,000  Level Boston Center
Mon 03:00:03 PM 42.2236 -74.2372 266° West 279 321 18,000  Level Boston Center
Mon 03:01:03 PM 42.2178 -74.3381 266° West 279 321 18,000  Level Boston Center
Mon 03:02:03 PM 42.2119 -74.4331 265° West 279 321 18,000  Level Boston Center
Mon 03:03:03 PM 42.2039 -74.5394 264° West 279 321 18,000 -150 Level Boston Center
Mon 03:04:03 PM 42.1978 -74.6428 265° West 285 328 17,700 -650 Descending Boston Center
Mon 03:05:03 PM 42.1914 -74.7547 266° West 296 341 16,700 -1,000 Descending Boston Center
Mon 03:06:03 PM 42.1847 -74.8639 265° West 296 341 15,700 -1,000 Descending Boston Center
Mon 03:08:00 PM 42.1668 -75.0457 270° West  Level FlightAware Approximate
Mon 03:15:00 PM 42.1638 -75.7056 266° West  Level FlightAware Approximate
Mon 03:16:00 PM 42.1809 -75.8070 289° West  Level FlightAware Approximate
Mon 03:17:00 PM 42.1919 -75.9099 281° West  Level FlightAware Approximate
Mon 03:18:00 PM 42.2000 -75.9667 North  Level FlightAware Approximate
Mon 03:19:00 PM 42.2086 -75.9797 North  Level Estimated
Mon 03:20:00 PM 42.2086 -75.9797 North  Level Estimated
Mon 03:21:00 PM 42.2086 -75.9797 North  Level Estimated
Mon 03:22:00 PM 42.2086 -75.9797 North  Level Estimated
Mon 03:23:00 PM 42.2086 -75.9797 North  Level Estimated

Login

Don't have an account? Register now (free) for customized features, flight alerts, and more!